createdAt,value
2019-02-18T00:05:07.662Z,47.40
2019-02-18T00:10:36.955Z,47.60
2019-02-18T00:16:06.302Z,47.60
2019-02-18T00:21:35.553Z,47.60
2019-02-18T00:27:04.896Z,47.70
2019-02-18T00:32:34.155Z,47.70
2019-02-18T00:38:03.448Z,47.90
2019-02-18T00:43:32.710Z,47.80
2019-02-18T00:49:01.984Z,47.90
2019-02-18T00:54:31.265Z,48.00
2019-02-18T01:00:00.527Z,48.00
2019-02-18T01:05:29.773Z,48.00
2019-02-18T01:10:59.446Z,48.10
2019-02-18T01:16:28.909Z,48.10
2019-02-18T01:21:58.449Z,48.20
2019-02-18T01:27:27.694Z,48.30
2019-02-18T01:32:56.965Z,48.30
2019-02-18T01:38:26.227Z,48.40
2019-02-18T01:43:55.509Z,48.60
2019-02-18T01:49:25.161Z,48.80
2019-02-18T01:54:54.425Z,49.10
2019-02-18T02:00:23.693Z,49.10
2019-02-18T02:05:52.970Z,49.20
2019-02-18T02:11:22.314Z,49.10
2019-02-18T02:16:51.655Z,49.40
2019-02-18T02:22:20.988Z,49.40
2019-02-18T02:27:50.285Z,49.50
2019-02-18T02:33:19.596Z,49.60
2019-02-18T02:38:48.863Z,49.80
2019-02-18T02:44:18.148Z,49.90
2019-02-18T02:49:47.457Z,50.00
2019-02-18T02:55:16.806Z,50.00
2019-02-18T03:00:46.081Z,49.80
2019-02-18T03:06:15.355Z,49.90
2019-02-18T03:11:44.629Z,50.00
2019-02-18T03:17:13.948Z,50.10
2019-02-18T03:22:43.164Z,50.00
2019-02-18T03:28:19.725Z,50.20
2019-02-18T03:33:56.282Z,50.40
2019-02-18T03:39:25.706Z,50.50
2019-02-18T03:44:54.968Z,51.10
2019-02-18T03:50:24.262Z,50.80
2019-02-18T03:55:53.524Z,51.00
2019-02-18T04:01:22.806Z,51.20
2019-02-18T04:06:52.086Z,51.30
2019-02-18T04:12:21.354Z,51.40
2019-02-18T04:17:50.631Z,51.60
2019-02-18T04:23:20.109Z,51.80
2019-02-18T04:28:49.385Z,51.90
2019-02-18T04:34:18.662Z,52.00
2019-02-18T04:39:47.925Z,52.20
2019-02-18T04:45:17.220Z,52.30
2019-02-18T04:50:46.513Z,52.30
2019-02-18T04:56:15.846Z,52.40
2019-02-18T05:01:45.132Z,52.40
2019-02-18T05:07:14.493Z,52.60
2019-02-18T05:12:43.755Z,52.70
2019-02-18T05:18:13.995Z,52.60
2019-02-18T05:23:46.836Z,52.70
2019-02-18T05:29:16.117Z,52.80
2019-02-18T05:34:45.394Z,52.80
2019-02-18T05:40:14.843Z,52.90
2019-02-18T05:45:44.119Z,53.00
2019-02-18T05:51:13.397Z,53.20
2019-02-18T05:56:42.696Z,53.20
2019-02-18T06:02:11.960Z,53.30
2019-02-18T06:07:41.273Z,53.40
2019-02-18T06:13:10.511Z,53.50
2019-02-18T06:18:39.788Z,53.60
2019-02-18T06:24:09.060Z,53.70
2019-02-18T06:29:38.332Z,53.80
2019-02-18T06:35:08.151Z,53.80
2019-02-18T06:40:37.417Z,53.80
2019-02-18T06:46:08.344Z,53.90
2019-02-18T06:51:37.617Z,54.00
2019-02-18T06:57:26.736Z,54.20
2019-02-18T07:03:06.169Z,54.20
2019-02-18T07:08:39.857Z,54.00
2019-02-18T07:14:09.135Z,54.40
2019-02-18T07:19:38.409Z,54.40
2019-02-18T07:25:09.616Z,54.30
2019-02-18T07:30:38.980Z,54.30
2019-02-18T07:36:08.257Z,54.20
2019-02-18T07:41:37.510Z,54.10
2019-02-18T07:47:06.773Z,54.00
2019-02-18T07:52:36.047Z,53.90
2019-02-18T07:58:06.243Z,53.80
2019-02-18T08:03:35.507Z,54.10
2019-02-18T08:09:06.181Z,53.30
2019-02-18T08:14:35.442Z,53.10
2019-02-18T08:20:08.524Z,52.90
2019-02-18T08:25:37.785Z,52.80
2019-02-18T08:31:07.118Z,52.60
2019-02-18T08:36:36.383Z,52.30
2019-02-18T08:42:05.648Z,51.90
2019-02-18T08:47:34.913Z,51.90
2019-02-18T08:53:04.251Z,51.30
2019-02-18T08:58:33.520Z,50.70
2019-02-18T09:04:02.797Z,50.40
2019-02-18T09:09:32.067Z,50.10
2019-02-18T09:15:01.338Z,49.80
2019-02-18T09:20:30.600Z,49.20
2019-02-18T09:25:59.928Z,48.60
2019-02-18T09:31:29.467Z,48.20
2019-02-18T09:36:58.725Z,47.80
2019-02-18T09:42:27.990Z,47.30
2019-02-18T09:47:57.594Z,47.00
2019-02-18T09:53:26.859Z,46.70
2019-02-18T09:58:56.134Z,45.80
2019-02-18T10:04:25.420Z,45.10
2019-02-18T10:09:54.706Z,44.30
2019-02-18T10:15:23.985Z,44.10
2019-02-18T10:20:53.245Z,43.50
2019-02-18T10:26:22.527Z,42.20
2019-02-18T10:31:51.793Z,41.70
2019-02-18T10:37:21.071Z,41.30
2019-02-18T10:42:50.362Z,40.40
2019-02-18T10:48:19.639Z,40.40
2019-02-18T10:53:48.908Z,39.90
2019-02-18T10:59:18.190Z,39.20
2019-02-18T11:04:47.479Z,39.20
2019-02-18T11:10:17.987Z,38.40
2019-02-18T11:15:47.284Z,37.80
2019-02-18T11:21:16.563Z,38.10
2019-02-18T11:26:45.841Z,38.10
2019-02-18T11:32:15.113Z,37.50
2019-02-18T11:37:46.485Z,37.80
2019-02-18T11:43:15.785Z,37.50
2019-02-18T11:48:45.068Z,37.50
2019-02-18T11:54:14.770Z,36.80
2019-02-18T11:59:45.068Z,36.60
2019-02-18T12:05:14.670Z,36.50
2019-02-18T12:10:44.015Z,37.20
2019-02-18T12:16:17.302Z,36.40
2019-02-18T12:21:46.590Z,36.30
2019-02-18T12:27:16.320Z,36.00
2019-02-18T12:32:45.600Z,35.70
2019-02-18T12:38:17.256Z,35.40
2019-02-18T12:43:45.920Z,35.00
2019-02-18T12:49:15.197Z,34.70
2019-02-18T12:54:44.869Z,34.90
2019-02-18T13:00:15.572Z,34.90
2019-02-18T13:05:44.958Z,34.60
2019-02-18T13:11:14.306Z,35.20
2019-02-18T13:16:45.511Z,34.90
2019-02-18T13:22:14.785Z,34.20
2019-02-18T13:27:48.964Z,34.00
2019-02-18T13:33:18.233Z,33.90
2019-02-18T13:38:47.579Z,31.80
2019-02-18T13:44:16.932Z,31.90
2019-02-18T13:49:46.208Z,31.70
2019-02-18T13:55:15.559Z,31.40
2019-02-18T14:00:45.015Z,30.30
2019-02-18T14:06:14.315Z,29.30
2019-02-18T14:11:43.599Z,27.70
2019-02-18T14:17:12.864Z,26.50
2019-02-18T14:22:42.143Z,25.50
2019-02-18T14:28:11.706Z,24.90
2019-02-18T14:33:40.992Z,24.90
2019-02-18T14:39:11.977Z,25.00
2019-02-18T14:44:41.246Z,25.20
2019-02-18T14:50:11.078Z,25.40
2019-02-18T14:55:40.412Z,24.40
2019-02-18T15:01:09.837Z,23.80
2019-02-18T15:06:39.268Z,24.10
2019-02-18T15:12:08.603Z,24.40
2019-02-18T15:17:38.199Z,24.60
2019-02-18T15:23:07.479Z,25.20
2019-02-18T15:28:36.838Z,24.40
2019-02-18T15:34:06.118Z,24.20
2019-02-18T15:39:35.503Z,24.80
2019-02-18T15:45:06.055Z,25.00
2019-02-18T15:50:35.334Z,25.60
2019-02-18T15:56:04.737Z,26.40
2019-02-18T16:01:35.671Z,27.00
2019-02-18T16:07:05.020Z,27.30
2019-02-18T16:12:34.323Z,27.60
2019-02-18T16:18:03.619Z,28.20
2019-02-18T16:23:32.925Z,29.00
2019-02-18T16:29:02.205Z,30.00
2019-02-18T16:34:31.873Z,30.80
2019-02-18T16:40:01.400Z,31.50
2019-02-18T16:45:30.687Z,32.00
2019-02-18T16:51:00.340Z,32.70
2019-02-18T16:56:29.644Z,33.40
2019-02-18T17:01:59.298Z,34.00
2019-02-18T17:07:28.563Z,34.70
2019-02-18T17:12:57.849Z,35.50
2019-02-18T17:18:27.166Z,37.00
2019-02-18T17:23:56.450Z,37.80
2019-02-18T17:29:27.401Z,38.30
2019-02-18T17:34:56.683Z,39.40
2019-02-18T17:40:25.943Z,39.40
2019-02-18T17:45:55.217Z,39.80
2019-02-18T17:51:24.484Z,40.30
2019-02-18T17:56:53.768Z,40.70
2019-02-18T18:02:23.047Z,41.10
2019-02-18T18:07:52.320Z,41.60
2019-02-18T18:13:29.028Z,42.00
2019-02-18T18:18:58.295Z,42.60
2019-02-18T18:24:27.567Z,43.00
2019-02-18T18:29:56.841Z,43.20
2019-02-18T18:35:26.113Z,43.70
2019-02-18T18:40:55.751Z,43.90
2019-02-18T18:46:25.026Z,44.20
2019-02-18T18:51:54.379Z,44.50
2019-02-18T18:57:23.683Z,44.80
2019-02-18T19:02:53.014Z,44.90
2019-02-18T19:08:22.763Z,45.20
2019-02-18T19:13:53.661Z,45.50
2019-02-18T19:19:23.084Z,45.70
2019-02-18T19:24:52.365Z,45.80
2019-02-18T19:30:31.119Z,46.00
2019-02-18T19:36:00.434Z,46.10
2019-02-18T19:41:30.049Z,46.40
2019-02-18T19:46:59.399Z,46.70
2019-02-18T19:52:28.703Z,46.90
2019-02-18T19:57:57.986Z,47.10
2019-02-18T20:03:27.294Z,48.00
2019-02-18T20:08:56.579Z,47.70
2019-02-18T20:14:25.860Z,48.00
2019-02-18T20:19:55.137Z,48.00
2019-02-18T20:25:24.425Z,48.00
2019-02-18T20:30:53.707Z,48.20
2019-02-18T20:36:22.970Z,48.30
2019-02-18T20:41:52.244Z,48.40
2019-02-18T20:47:21.629Z,48.50
2019-02-18T20:52:51.217Z,48.70
2019-02-18T20:58:20.820Z,48.70
2019-02-18T21:03:50.102Z,48.80
2019-02-18T21:09:19.393Z,49.00
2019-02-18T21:14:48.851Z,49.20
2019-02-18T21:20:18.217Z,49.30
2019-02-18T21:25:51.695Z,49.50
2019-02-18T21:31:20.912Z,49.60
2019-02-18T21:36:50.282Z,49.80
2019-02-18T21:42:19.967Z,50.00
2019-02-18T21:47:49.237Z,50.10
2019-02-18T21:53:18.791Z,50.20
2019-02-18T21:58:48.063Z,50.40
2019-02-18T22:04:18.063Z,50.60
2019-02-18T22:09:47.465Z,50.40
2019-02-18T22:15:17.441Z,50.70
2019-02-18T22:20:46.726Z,50.80
2019-02-18T22:26:16.001Z,51.00
2019-02-18T22:31:46.149Z,51.10
2019-02-18T22:37:15.421Z,51.70
2019-02-18T22:42:44.682Z,51.20
2019-02-18T22:48:13.951Z,51.40
2019-02-18T22:53:43.231Z,51.50
2019-02-18T22:59:12.495Z,51.70
2019-02-18T23:04:46.403Z,51.80
2019-02-18T23:10:15.675Z,51.80
2019-02-18T23:15:45.046Z,52.00
2019-02-18T23:21:14.363Z,52.10
2019-02-18T23:26:43.897Z,52.30
2019-02-18T23:32:13.169Z,52.30
2019-02-18T23:37:42.445Z,52.40
2019-02-18T23:43:11.786Z,52.50
2019-02-18T23:48:41.053Z,52.60
2019-02-18T23:54:10.316Z,52.70
2019-02-18T23:59:39.642Z,52.90
